Terminal Aerodrome Forecast
Issued by NWS

Home | Current Version | Previous Version | Text Only | Print | Product List | Glossary Off
Versions: 1 2 3 4 5 6 7 8 9 10 11 12 13 14 15

000
FTUS42 KMHX 260540
TAFPGV
TAF
KPGV 260540Z 2606/2706 00000KT 5SM BR SCT015
     FM260900 00000KT 2SM BR BKN007 OVC015
     FM261400 05004KT P6SM VCSH SCT025
     FM262000 06005KT P6SM VCTS SCT025 BKN040CB
     FM270400 00000KT 4SM BR SKC
      AMD LTD TO CLD VIS AND WIND=

USA.gov is the U.S. government's official web portal to all federal, state and local government web resources and services.